sensor_id;sensor_type;location;lat;lon;timestamp;temperature;humidity
23079;DHT22;11707;50.830;4.364;2024-02-26T00:02:24;7.20;82.00
23079;DHT22;11707;50.830;4.364;2024-02-26T00:04:49;7.20;85.50
23079;DHT22;11707;50.830;4.364;2024-02-26T00:07:16;7.20;90.20
23079;DHT22;11707;50.830;4.364;2024-02-26T00:09:42;7.30;87.70
23079;DHT22;11707;50.830;4.364;2024-02-26T00:12:08;7.30;84.50
23079;DHT22;11707;50.830;4.364;2024-02-26T00:14:33;7.30;80.80
23079;DHT22;11707;50.830;4.364;2024-02-26T00:17:00;7.30;86.30
23079;DHT22;11707;50.830;4.364;2024-02-26T00:19:25;7.20;87.40
23079;DHT22;11707;50.830;4.364;2024-02-26T00:21:51;7.20;85.90
23079;DHT22;11707;50.830;4.364;2024-02-26T00:24:19;7.20;90.00
23079;DHT22;11707;50.830;4.364;2024-02-26T00:26:44;7.20;92.50
23079;DHT22;11707;50.830;4.364;2024-02-26T00:29:10;7.20;93.50
23079;DHT22;11707;50.830;4.364;2024-02-26T00:31:38;7.20;92.20
23079;DHT22;11707;50.830;4.364;2024-02-26T00:34:04;7.10;94.00
23079;DHT22;11707;50.830;4.364;2024-02-26T00:36:30;7.10;96.00
23079;DHT22;11707;50.830;4.364;2024-02-26T00:38:55;7.20;97.60
23079;DHT22;11707;50.830;4.364;2024-02-26T00:41:21;7.20;96.40
23079;DHT22;11707;50.830;4.364;2024-02-26T00:43:49;7.20;97.00
23079;DHT22;11707;50.830;4.364;2024-02-26T00:46:15;7.10;97.00
23079;DHT22;11707;50.830;4.364;2024-02-26T00:48:43;7.10;97.10
23079;DHT22;11707;50.830;4.364;2024-02-26T00:51:09;7.10;99.30
23079;DHT22;11707;50.830;4.364;2024-02-26T00:53:35;7.10;99.90
23079;DHT22;11707;50.830;4.364;2024-02-26T00:56:00;7.20;99.70
23079;DHT22;11707;50.830;4.364;2024-02-26T00:58:27;7.10;98.20
23079;DHT22;11707;50.830;4.364;2024-02-26T01:00:52;7.10;98.50
23079;DHT22;11707;50.830;4.364;2024-02-26T01:03:19;7.20;96.30
23079;DHT22;11707;50.830;4.364;2024-02-26T01:05:45;7.10;96.60
23079;DHT22;11707;50.830;4.364;2024-02-26T01:08:10;7.10;98.40
23079;DHT22;11707;50.830;4.364;2024-02-26T01:10:36;7.00;99.70
23079;DHT22;11707;50.830;4.364;2024-02-26T01:13:04;7.00;99.90
23079;DHT22;11707;50.830;4.364;2024-02-26T01:15:30;7.10;99.90
23079;DHT22;11707;50.830;4.364;2024-02-26T01:17:58;7.10;99.90
23079;DHT22;11707;50.830;4.364;2024-02-26T01:20:26;7.10;99.90
23079;DHT22;11707;50.830;4.364;2024-02-26T01:22:51;7.10;99.90
23079;DHT22;11707;50.830;4.364;2024-02-26T01:25:17;7.00;99.90
23079;DHT22;11707;50.830;4.364;2024-02-26T01:27:43;7.00;99.90
23079;DHT22;11707;50.830;4.364;2024-02-26T01:30:10;7.00;99.90
23079;DHT22;11707;50.830;4.364;2024-02-26T01:32:36;7.00;99.90
23079;DHT22;11707;50.830;4.364;2024-02-26T01:35:02;7.10;99.90
23079;DHT22;11707;50.830;4.364;2024-02-26T01:37:33;6.90;99.90
23079;DHT22;11707;50.830;4.364;2024-02-26T01:39:58;6.90;99.90
23079;DHT22;11707;50.830;4.364;2024-02-26T01:42:24;6.90;99.90
23079;DHT22;11707;50.830;4.364;2024-02-26T01:44:52;6.90;99.90
23079;DHT22;11707;50.830;4.364;2024-02-26T01:47:21;7.00;99.90
23079;DHT22;11707;50.830;4.364;2024-02-26T01:49:49;6.90;99.90
23079;DHT22;11707;50.830;4.364;2024-02-26T01:52:15;6.90;99.90
23079;DHT22;11707;50.830;4.364;2024-02-26T01:54:45;7.00;99.90
23079;DHT22;11707;50.830;4.364;2024-02-26T01:57:14;7.00;99.90
23079;DHT22;11707;50.830;4.364;2024-02-26T01:59:42;6.90;99.90
23079;DHT22;11707;50.830;4.364;2024-02-26T02:02:13;6.90;99.90
23079;DHT22;11707;50.830;4.364;2024-02-26T02:04:40;6.90;99.90
23079;DHT22;11707;50.830;4.364;2024-02-26T02:07:06;6.90;99.90
23079;DHT22;11707;50.830;4.364;2024-02-26T02:09:32;6.80;99.90
23079;DHT22;11707;50.830;4.364;2024-02-26T02:11:58;6.90;99.90
23079;DHT22;11707;50.830;4.364;2024-02-26T02:14:25;6.90;99.90
23079;DHT22;11707;50.830;4.364;2024-02-26T02:16:51;6.90;99.90
23079;DHT22;11707;50.830;4.364;2024-02-26T02:19:17;6.90;99.90
23079;DHT22;11707;50.830;4.364;2024-02-26T02:21:42;6.90;99.90
23079;DHT22;11707;50.830;4.364;2024-02-26T02:24:08;6.90;99.90
23079;DHT22;11707;50.830;4.364;2024-02-26T02:26:34;6.90;99.90
23079;DHT22;11707;50.830;4.364;2024-02-26T02:29:00;6.80;99.90
23079;DHT22;11707;50.830;4.364;2024-02-26T02:31:26;6.80;99.90
23079;DHT22;11707;50.830;4.364;2024-02-26T02:33:54;6.80;99.90
23079;DHT22;11707;50.830;4.364;2024-02-26T02:36:20;6.80;99.90
23079;DHT22;11707;50.830;4.364;2024-02-26T02:38:49;6.70;99.90
23079;DHT22;11707;50.830;4.364;2024-02-26T02:41:20;6.80;99.90
23079;DHT22;11707;50.830;4.364;2024-02-26T02:43:47;6.90;99.90
23079;DHT22;11707;50.830;4.364;2024-02-26T02:46:12;6.90;99.90
23079;DHT22;11707;50.830;4.364;2024-02-26T02:48:38;6.90;99.90
23079;DHT22;11707;50.830;4.364;2024-02-26T02:51:04;6.90;99.90
23079;DHT22;11707;50.830;4.364;2024-02-26T02:53:30;6.90;99.90
23079;DHT22;11707;50.830;4.364;2024-02-26T02:55:56;6.90;99.90
23079;DHT22;11707;50.830;4.364;2024-02-26T02:58:21;6.90;99.90
23079;DHT22;11707;50.830;4.364;2024-02-26T03:00:49;6.80;99.90
23079;DHT22;11707;50.830;4.364;2024-02-26T03:03:17;6.80;99.90
23079;DHT22;11707;50.830;4.364;2024-02-26T03:05:48;6.80;99.90
23079;DHT22;11707;50.830;4.364;2024-02-26T03:08:13;6.90;99.90
23079;DHT22;11707;50.830;4.364;2024-02-26T03:10:39;6.90;99.90
23079;DHT22;11707;50.830;4.364;2024-02-26T03:13:04;6.80;99.90
23079;DHT22;11707;50.830;4.364;2024-02-26T03:15:30;6.80;99.90
23079;DHT22;11707;50.830;4.364;2024-02-26T03:17:56;6.90;99.90
23079;DHT22;11707;50.830;4.364;2024-02-26T03:20:21;6.90;99.90
23079;DHT22;11707;50.830;4.364;2024-02-26T03:22:47;6.70;99.90
23079;DHT22;11707;50.830;4.364;2024-02-26T03:25:13;6.80;99.90
23079;DHT22;11707;50.830;4.364;2024-02-26T03:27:38;6.70;99.90
23079;DHT22;11707;50.830;4.364;2024-02-26T03:30:05;6.80;99.90
23079;DHT22;11707;50.830;4.364;2024-02-26T03:32:36;6.80;99.90
23079;DHT22;11707;50.830;4.364;2024-02-26T03:35:02;6.80;99.90
23079;DHT22;11707;50.830;4.364;2024-02-26T03:37:28;6.80;99.90
23079;DHT22;11707;50.830;4.364;2024-02-26T03:39:59;6.80;99.90
23079;DHT22;11707;50.830;4.364;2024-02-26T03:42:26;6.80;99.90
23079;DHT22;11707;50.830;4.364;2024-02-26T03:44:52;6.80;99.90
23079;DHT22;11707;50.830;4.364;2024-02-26T03:47:18;6.70;99.90
23079;DHT22;11707;50.830;4.364;2024-02-26T03:49:43;6.70;99.90
23079;DHT22;11707;50.830;4.364;2024-02-26T03:52:10;6.60;99.90
23079;DHT22;11707;50.830;4.364;2024-02-26T03:54:35;6.60;99.90
23079;DHT22;11707;50.830;4.364;2024-02-26T03:57:01;6.70;99.90
23079;DHT22;11707;50.830;4.364;2024-02-26T03:59:27;6.70;99.90
23079;DHT22;11707;50.830;4.364;2024-02-26T04:01:52;6.70;99.90
23079;DHT22;11707;50.830;4.364;2024-02-26T04:04:18;6.70;99.90
23079;DHT22;11707;50.830;4.364;2024-02-26T04:06:47;6.70;99.90
23079;DHT22;11707;50.830;4.364;2024-02-26T04:09:15;6.70;99.90
23079;DHT22;11707;50.830;4.364;2024-02-26T04:11:41;6.60;99.90
23079;DHT22;11707;50.830;4.364;2024-02-26T04:14:11;6.70;99.90
23079;DHT22;11707;50.830;4.364;2024-02-26T04:16:38;6.70;99.90
23079;DHT22;11707;50.830;4.364;2024-02-26T04:19:06;6.60;99.90
23079;DHT22;11707;50.830;4.364;2024-02-26T04:21:36;6.70;99.90
23079;DHT22;11707;50.830;4.364;2024-02-26T04:24:04;6.60;99.90
23079;DHT22;11707;50.830;4.364;2024-02-26T04:26:30;6.60;99.90
23079;DHT22;11707;50.830;4.364;2024-02-26T04:28:56;6.60;99.90
23079;DHT22;11707;50.830;4.364;2024-02-26T04:31:22;6.50;99.90
23079;DHT22;11707;50.830;4.364;2024-02-26T04:33:52;6.60;99.90
23079;DHT22;11707;50.830;4.364;2024-02-26T04:36:17;6.60;99.90
23079;DHT22;11707;50.830;4.364;2024-02-26T04:38:44;6.60;99.90
23079;DHT22;11707;50.830;4.364;2024-02-26T04:41:10;6.60;99.90
23079;DHT22;11707;50.830;4.364;2024-02-26T04:43:36;6.50;99.90
23079;DHT22;11707;50.830;4.364;2024-02-26T04:46:08;6.50;99.90
23079;DHT22;11707;50.830;4.364;2024-02-26T04:48:36;6.50;99.90
23079;DHT22;11707;50.830;4.364;2024-02-26T04:51:06;6.40;99.90
23079;DHT22;11707;50.830;4.364;2024-02-26T04:53:33;6.50;99.90
23079;DHT22;11707;50.830;4.364;2024-02-26T04:56:01;6.50;99.90
23079;DHT22;11707;50.830;4.364;2024-02-26T04:58:27;6.60;99.90
23079;DHT22;11707;50.830;4.364;2024-02-26T05:00:53;6.60;99.90
23079;DHT22;11707;50.830;4.364;2024-02-26T05:03:19;6.60;99.90
23079;DHT22;11707;50.830;4.364;2024-02-26T05:05:47;6.60;99.90
23079;DHT22;11707;50.830;4.364;2024-02-26T05:08:13;6.60;99.90
23079;DHT22;11707;50.830;4.364;2024-02-26T05:10:39;6.50;99.90
23079;DHT22;11707;50.830;4.364;2024-02-26T05:13:06;6.50;99.90
23079;DHT22;11707;50.830;4.364;2024-02-26T05:15:35;6.50;99.90
23079;DHT22;11707;50.830;4.364;2024-02-26T05:18:01;6.50;99.90
23079;DHT22;11707;50.830;4.364;2024-02-26T05:20:28;6.50;99.90
23079;DHT22;11707;50.830;4.364;2024-02-26T05:22:54;6.60;99.90
23079;DHT22;11707;50.830;4.364;2024-02-26T05:25:19;6.60;99.90
23079;DHT22;11707;50.830;4.364;2024-02-26T05:27:45;6.50;99.90
23079;DHT22;11707;50.830;4.364;2024-02-26T05:30:11;6.50;99.90
23079;DHT22;11707;50.830;4.364;2024-02-26T05:32:37;6.50;99.90
23079;DHT22;11707;50.830;4.364;2024-02-26T05:35:03;6.50;99.90
23079;DHT22;11707;50.830;4.364;2024-02-26T05:37:29;6.50;99.90
23079;DHT22;11707;50.830;4.364;2024-02-26T05:39:58;6.40;99.90
23079;DHT22;11707;50.830;4.364;2024-02-26T05:42:24;6.40;99.90
23079;DHT22;11707;50.830;4.364;2024-02-26T05:44:50;6.40;99.90
23079;DHT22;11707;50.830;4.364;2024-02-26T05:47:15;6.40;99.90
23079;DHT22;11707;50.830;4.364;2024-02-26T05:49:42;6.40;99.90
23079;DHT22;11707;50.830;4.364;2024-02-26T05:52:08;6.40;99.90
23079;DHT22;11707;50.830;4.364;2024-02-26T05:54:34;6.30;99.90
23079;DHT22;11707;50.830;4.364;2024-02-26T05:57:02;6.40;99.90
23079;DHT22;11707;50.830;4.364;2024-02-26T05:59:27;6.40;99.90
23079;DHT22;11707;50.830;4.364;2024-02-26T06:01:53;6.40;99.90
23079;DHT22;11707;50.830;4.364;2024-02-26T06:04:19;6.40;99.90
23079;DHT22;11707;50.830;4.364;2024-02-26T06:06:45;6.40;99.90
23079;DHT22;11707;50.830;4.364;2024-02-26T06:09:13;6.40;99.90
23079;DHT22;11707;50.830;4.364;2024-02-26T06:11:39;6.40;99.90
23079;DHT22;11707;50.830;4.364;2024-02-26T06:14:08;6.40;99.90
23079;DHT22;11707;50.830;4.364;2024-02-26T06:16:33;6.40;99.90
23079;DHT22;11707;50.830;4.364;2024-02-26T06:19:00;6.40;99.90
23079;DHT22;11707;50.830;4.364;2024-02-26T06:21:26;6.30;99.90
23079;DHT22;11707;50.830;4.364;2024-02-26T06:23:52;6.30;99.90
23079;DHT22;11707;50.830;4.364;2024-02-26T06:26:19;6.30;99.90
23079;DHT22;11707;50.830;4.364;2024-02-26T06:28:45;6.30;99.90
23079;DHT22;11707;50.830;4.364;2024-02-26T06:31:11;6.30;99.90
23079;DHT22;11707;50.830;4.364;2024-02-26T06:33:36;6.40;99.90
23079;DHT22;11707;50.830;4.364;2024-02-26T06:36:04;6.40;99.90
23079;DHT22;11707;50.830;4.364;2024-02-26T06:38:30;6.40;99.90
23079;DHT22;11707;50.830;4.364;2024-02-26T06:40:56;6.40;99.90
23079;DHT22;11707;50.830;4.364;2024-02-26T06:43:22;6.40;99.90
23079;DHT22;11707;50.830;4.364;2024-02-26T06:45:50;6.40;99.90
23079;DHT22;11707;50.830;4.364;2024-02-26T06:48:15;6.40;99.90
23079;DHT22;11707;50.830;4.364;2024-02-26T06:50:41;6.40;99.90
23079;DHT22;11707;50.830;4.364;2024-02-26T06:53:09;6.40;99.90
23079;DHT22;11707;50.830;4.364;2024-02-26T06:55:35;6.40;99.90
23079;DHT22;11707;50.830;4.364;2024-02-26T06:58:02;6.40;99.90
23079;DHT22;11707;50.830;4.364;2024-02-26T07:00:31;6.40;99.90
23079;DHT22;11707;50.830;4.364;2024-02-26T07:02:58;6.40;99.90
23079;DHT22;11707;50.830;4.364;2024-02-26T07:05:24;6.40;99.90
23079;DHT22;11707;50.830;4.364;2024-02-26T07:07:50;6.40;99.90
23079;DHT22;11707;50.830;4.364;2024-02-26T07:10:15;6.40;99.90
23079;DHT22;11707;50.830;4.364;2024-02-26T07:12:41;6.40;99.90
23079;DHT22;11707;50.830;4.364;2024-02-26T07:15:11;6.40;99.90
23079;DHT22;11707;50.830;4.364;2024-02-26T07:17:37;6.30;99.90
23079;DHT22;11707;50.830;4.364;2024-02-26T07:20:07;6.30;99.90
23079;DHT22;11707;50.830;4.364;2024-02-26T07:22:36;6.30;99.90
23079;DHT22;11707;50.830;4.364;2024-02-26T07:25:02;6.30;99.90
23079;DHT22;11707;50.830;4.364;2024-02-26T07:27:29;6.30;99.90
23079;DHT22;11707;50.830;4.364;2024-02-26T07:29:54;6.30;99.90
23079;DHT22;11707;50.830;4.364;2024-02-26T07:32:20;6.30;99.90
23079;DHT22;11707;50.830;4.364;2024-02-26T07:34:46;6.20;99.90
23079;DHT22;11707;50.830;4.364;2024-02-26T07:37:11;6.20;99.90
23079;DHT22;11707;50.830;4.364;2024-02-26T07:39:37;6.20;99.90
23079;DHT22;11707;50.830;4.364;2024-02-26T07:42:03;6.20;99.90
23079;DHT22;11707;50.830;4.364;2024-02-26T07:44:29;6.20;99.90
23079;DHT22;11707;50.830;4.364;2024-02-26T07:46:55;6.30;99.90
23079;DHT22;11707;50.830;4.364;2024-02-26T07:49:21;6.30;99.90
23079;DHT22;11707;50.830;4.364;2024-02-26T07:51:46;6.30;99.90
23079;DHT22;11707;50.830;4.364;2024-02-26T07:54:12;6.20;99.90
23079;DHT22;11707;50.830;4.364;2024-02-26T07:56:38;6.20;99.90
23079;DHT22;11707;50.830;4.364;2024-02-26T07:59:03;6.20;99.90
23079;DHT22;11707;50.830;4.364;2024-02-26T08:01:29;6.10;99.90
23079;DHT22;11707;50.830;4.364;2024-02-26T08:03:55;6.10;99.90
23079;DHT22;11707;50.830;4.364;2024-02-26T08:06:21;6.20;99.90
23079;DHT22;11707;50.830;4.364;2024-02-26T08:08:49;6.20;99.90
23079;DHT22;11707;50.830;4.364;2024-02-26T08:11:15;6.20;99.90
23079;DHT22;11707;50.830;4.364;2024-02-26T08:13:41;6.20;99.90
23079;DHT22;11707;50.830;4.364;2024-02-26T08:16:07;6.20;99.90
23079;DHT22;11707;50.830;4.364;2024-02-26T08:18:33;6.30;99.90
23079;DHT22;11707;50.830;4.364;2024-02-26T08:20:58;6.20;99.90
23079;DHT22;11707;50.830;4.364;2024-02-26T08:23:24;6.20;99.90
23079;DHT22;11707;50.830;4.364;2024-02-26T08:25:54;6.20;99.90
23079;DHT22;11707;50.830;4.364;2024-02-26T08:28:19;6.20;99.90
23079;DHT22;11707;50.830;4.364;2024-02-26T08:30:45;6.20;99.90
23079;DHT22;11707;50.830;4.364;2024-02-26T08:33:11;6.30;99.90
23079;DHT22;11707;50.830;4.364;2024-02-26T08:35:37;6.30;99.90
23079;DHT22;11707;50.830;4.364;2024-02-26T08:38:02;6.30;99.90
23079;DHT22;11707;50.830;4.364;2024-02-26T08:40:29;6.20;99.90
23079;DHT22;11707;50.830;4.364;2024-02-26T08:42:55;6.20;99.90
23079;DHT22;11707;50.830;4.364;2024-02-26T08:45:21;6.20;99.90
23079;DHT22;11707;50.830;4.364;2024-02-26T08:47:49;6.10;99.90
23079;DHT22;11707;50.830;4.364;2024-02-26T08:50:15;6.20;99.90
23079;DHT22;11707;50.830;4.364;2024-02-26T08:52:41;6.20;99.90
23079;DHT22;11707;50.830;4.364;2024-02-26T08:55:07;6.20;99.90
23079;DHT22;11707;50.830;4.364;2024-02-26T08:57:34;6.20;99.90
23079;DHT22;11707;50.830;4.364;2024-02-26T09:00:00;6.30;99.90
23079;DHT22;11707;50.830;4.364;2024-02-26T09:02:26;6.30;99.90
23079;DHT22;11707;50.830;4.364;2024-02-26T09:04:52;6.30;99.90
23079;DHT22;11707;50.830;4.364;2024-02-26T09:07:20;6.30;99.90
23079;DHT22;11707;50.830;4.364;2024-02-26T09:09:46;6.30;99.90
23079;DHT22;11707;50.830;4.364;2024-02-26T09:12:12;6.30;99.90
23079;DHT22;11707;50.830;4.364;2024-02-26T09:14:40;6.30;99.90
23079;DHT22;11707;50.830;4.364;2024-02-26T09:17:08;6.20;99.90
23079;DHT22;11707;50.830;4.364;2024-02-26T09:19:35;6.30;99.90
23079;DHT22;11707;50.830;4.364;2024-02-26T09:22:02;6.20;99.90
23079;DHT22;11707;50.830;4.364;2024-02-26T09:24:28;6.30;99.90
23079;DHT22;11707;50.830;4.364;2024-02-26T09:26:54;6.20;99.90
23079;DHT22;11707;50.830;4.364;2024-02-26T09:29:20;6.30;99.90
23079;DHT22;11707;50.830;4.364;2024-02-26T09:31:46;6.30;99.90
23079;DHT22;11707;50.830;4.364;2024-02-26T09:34:14;6.30;99.90
23079;DHT22;11707;50.830;4.364;2024-02-26T09:36:40;6.30;99.90
23079;DHT22;11707;50.830;4.364;2024-02-26T09:39:06;6.40;99.90
23079;DHT22;11707;50.830;4.364;2024-02-26T09:41:36;6.30;99.90
23079;DHT22;11707;50.830;4.364;2024-02-26T09:44:05;6.30;99.90
23079;DHT22;11707;50.830;4.364;2024-02-26T09:46:31;6.30;99.90
23079;DHT22;11707;50.830;4.364;2024-02-26T09:48:57;6.40;99.90
23079;DHT22;11707;50.830;4.364;2024-02-26T09:51:23;6.40;99.90
23079;DHT22;11707;50.830;4.364;2024-02-26T09:53:53;6.40;99.90
23079;DHT22;11707;50.830;4.364;2024-02-26T09:56:19;6.40;99.90
23079;DHT22;11707;50.830;4.364;2024-02-26T09:58:45;6.50;99.90
23079;DHT22;11707;50.830;4.364;2024-02-26T10:01:18;6.50;99.90
23079;DHT22;11707;50.830;4.364;2024-02-26T10:03:50;6.50;99.90
23079;DHT22;11707;50.830;4.364;2024-02-26T10:06:17;6.50;99.90
23079;DHT22;11707;50.830;4.364;2024-02-26T10:08:43;6.50;99.90
23079;DHT22;11707;50.830;4.364;2024-02-26T10:11:15;6.40;99.90
23079;DHT22;11707;50.830;4.364;2024-02-26T10:13:41;6.50;99.90
23079;DHT22;11707;50.830;4.364;2024-02-26T10:16:07;6.50;99.90
23079;DHT22;11707;50.830;4.364;2024-02-26T10:18:52;6.40;99.90
23079;DHT22;11707;50.830;4.364;2024-02-26T10:21:23;6.40;99.90
23079;DHT22;11707;50.830;4.364;2024-02-26T10:23:49;6.40;99.90
23079;DHT22;11707;50.830;4.364;2024-02-26T10:26:19;6.40;99.90
23079;DHT22;11707;50.830;4.364;2024-02-26T10:28:45;6.40;99.90
23079;DHT22;11707;50.830;4.364;2024-02-26T10:31:13;6.40;99.90
23079;DHT22;11707;50.830;4.364;2024-02-26T10:33:40;6.40;99.90
23079;DHT22;11707;50.830;4.364;2024-02-26T10:36:07;6.40;99.90
23079;DHT22;11707;50.830;4.364;2024-02-26T10:38:36;6.40;99.90
23079;DHT22;11707;50.830;4.364;2024-02-26T10:41:23;6.30;99.90
23079;DHT22;11707;50.830;4.364;2024-02-26T10:43:48;6.30;99.90
23079;DHT22;11707;50.830;4.364;2024-02-26T10:46:14;6.30;99.90
23079;DHT22;11707;50.830;4.364;2024-02-26T10:48:50;6.30;99.90
23079;DHT22;11707;50.830;4.364;2024-02-26T10:51:18;6.30;99.90
23079;DHT22;11707;50.830;4.364;2024-02-26T10:53:47;6.20;99.90
23079;DHT22;11707;50.830;4.364;2024-02-26T10:56:16;6.20;99.90
23079;DHT22;11707;50.830;4.364;2024-02-26T10:58:43;6.10;99.90
23079;DHT22;11707;50.830;4.364;2024-02-26T11:01:11;6.10;99.90
23079;DHT22;11707;50.830;4.364;2024-02-26T11:03:40;6.20;99.90
23079;DHT22;11707;50.830;4.364;2024-02-26T11:06:12;6.10;99.90
23079;DHT22;11707;50.830;4.364;2024-02-26T11:08:41;6.10;99.90
23079;DHT22;11707;50.830;4.364;2024-02-26T11:11:07;6.10;99.90
23079;DHT22;11707;50.830;4.364;2024-02-26T11:13:36;6.20;99.90
23079;DHT22;11707;50.830;4.364;2024-02-26T11:16:05;6.20;99.90
23079;DHT22;11707;50.830;4.364;2024-02-26T11:18:32;6.20;99.90
23079;DHT22;11707;50.830;4.364;2024-02-26T11:21:04;6.10;99.90
23079;DHT22;11707;50.830;4.364;2024-02-26T11:23:31;6.00;99.90
23079;DHT22;11707;50.830;4.364;2024-02-26T11:26:01;6.10;99.90
23079;DHT22;11707;50.830;4.364;2024-02-26T11:28:28;6.10;99.90
23079;DHT22;11707;50.830;4.364;2024-02-26T11:30:57;6.10;99.90
23079;DHT22;11707;50.830;4.364;2024-02-26T11:33:25;6.10;99.90
23079;DHT22;11707;50.830;4.364;2024-02-26T11:35:51;6.10;99.90
23079;DHT22;11707;50.830;4.364;2024-02-26T11:38:26;6.10;99.90
23079;DHT22;11707;50.830;4.364;2024-02-26T11:40:54;6.10;99.90
23079;DHT22;11707;50.830;4.364;2024-02-26T11:43:49;6.20;99.90
23079;DHT22;11707;50.830;4.364;2024-02-26T11:46:32;6.10;99.90
23079;DHT22;11707;50.830;4.364;2024-02-26T11:49:00;6.20;99.90
23079;DHT22;11707;50.830;4.364;2024-02-26T11:51:27;6.00;99.90
23079;DHT22;11707;50.830;4.364;2024-02-26T11:53:57;6.00;99.90
23079;DHT22;11707;50.830;4.364;2024-02-26T11:56:24;6.00;99.90
23079;DHT22;11707;50.830;4.364;2024-02-26T11:59:09;6.00;99.90
23079;DHT22;11707;50.830;4.364;2024-02-26T12:01:44;6.10;99.90
23079;DHT22;11707;50.830;4.364;2024-02-26T12:04:25;6.10;99.90
23079;DHT22;11707;50.830;4.364;2024-02-26T12:09:40;6.10;99.90
23079;DHT22;11707;50.830;4.364;2024-02-26T12:12:17;6.00;99.90
23079;DHT22;11707;50.830;4.364;2024-02-26T12:14:53;6.10;99.90
23079;DHT22;11707;50.830;4.364;2024-02-26T12:17:22;6.10;99.90
23079;DHT22;11707;50.830;4.364;2024-02-26T12:19:48;6.00;99.90
23079;DHT22;11707;50.830;4.364;2024-02-26T12:22:18;6.10;99.90
23079;DHT22;11707;50.830;4.364;2024-02-26T12:24:44;6.10;99.90
23079;DHT22;11707;50.830;4.364;2024-02-26T12:27:10;6.20;99.90
23079;DHT22;11707;50.830;4.364;2024-02-26T12:29:39;6.10;99.90
23079;DHT22;11707;50.830;4.364;2024-02-26T12:32:07;6.20;99.90
23079;DHT22;11707;50.830;4.364;2024-02-26T12:34:36;6.20;99.90
23079;DHT22;11707;50.830;4.364;2024-02-26T12:37:02;6.20;99.90
23079;DHT22;11707;50.830;4.364;2024-02-26T12:39:31;6.20;99.90
23079;DHT22;11707;50.830;4.364;2024-02-26T12:41:58;6.20;99.90
23079;DHT22;11707;50.830;4.364;2024-02-26T12:44:25;6.20;99.90
23079;DHT22;11707;50.830;4.364;2024-02-26T12:47:00;6.20;99.90
23079;DHT22;11707;50.830;4.364;2024-02-26T12:49:28;6.10;99.90
23079;DHT22;11707;50.830;4.364;2024-02-26T12:51:54;6.10;99.90
23079;DHT22;11707;50.830;4.364;2024-02-26T12:54:27;6.10;99.90
23079;DHT22;11707;50.830;4.364;2024-02-26T12:56:54;6.10;99.90
23079;DHT22;11707;50.830;4.364;2024-02-26T12:59:22;6.10;99.90
23079;DHT22;11707;50.830;4.364;2024-02-26T13:01:48;6.10;99.90
23079;DHT22;11707;50.830;4.364;2024-02-26T13:04:16;6.20;99.90
23079;DHT22;11707;50.830;4.364;2024-02-26T13:06:43;6.20;99.90
23079;DHT22;11707;50.830;4.364;2024-02-26T13:09:12;6.30;99.90
23079;DHT22;11707;50.830;4.364;2024-02-26T13:11:40;6.30;99.90
23079;DHT22;11707;50.830;4.364;2024-02-26T13:14:05;6.20;99.90
23079;DHT22;11707;50.830;4.364;2024-02-26T13:16:36;6.20;99.90
23079;DHT22;11707;50.830;4.364;2024-02-26T13:19:12;6.20;99.90
23079;DHT22;11707;50.830;4.364;2024-02-26T13:21:37;6.10;99.90
23079;DHT22;11707;50.830;4.364;2024-02-26T13:24:03;6.10;99.90
23079;DHT22;11707;50.830;4.364;2024-02-26T13:26:31;6.10;99.90
23079;DHT22;11707;50.830;4.364;2024-02-26T13:29:02;6.00;99.90
23079;DHT22;11707;50.830;4.364;2024-02-26T13:31:31;6.00;99.90
23079;DHT22;11707;50.830;4.364;2024-02-26T13:33:57;6.00;99.90
23079;DHT22;11707;50.830;4.364;2024-02-26T13:36:23;6.00;99.90
23079;DHT22;11707;50.830;4.364;2024-02-26T13:38:55;5.90;99.90
23079;DHT22;11707;50.830;4.364;2024-02-26T13:41:22;6.00;99.90
23079;DHT22;11707;50.830;4.364;2024-02-26T13:43:50;5.90;99.90
23079;DHT22;11707;50.830;4.364;2024-02-26T13:46:16;5.90;99.90
23079;DHT22;11707;50.830;4.364;2024-02-26T13:48:42;5.90;99.90
23079;DHT22;11707;50.830;4.364;2024-02-26T13:51:09;5.90;99.90
23079;DHT22;11707;50.830;4.364;2024-02-26T13:53:37;6.00;99.90
23079;DHT22;11707;50.830;4.364;2024-02-26T13:56:03;6.00;99.90
23079;DHT22;11707;50.830;4.364;2024-02-26T13:58:32;6.10;99.90
23079;DHT22;11707;50.830;4.364;2024-02-26T14:00:58;6.10;99.90
23079;DHT22;11707;50.830;4.364;2024-02-26T14:03:25;6.20;99.90
23079;DHT22;11707;50.830;4.364;2024-02-26T14:05:50;6.10;99.90
23079;DHT22;11707;50.830;4.364;2024-02-26T14:08:16;6.10;99.90
23079;DHT22;11707;50.830;4.364;2024-02-26T14:10:42;6.10;99.90
23079;DHT22;11707;50.830;4.364;2024-02-26T14:13:10;6.10;99.90
23079;DHT22;11707;50.830;4.364;2024-02-26T14:15:35;6.10;99.90
23079;DHT22;11707;50.830;4.364;2024-02-26T14:18:07;6.10;99.90
23079;DHT22;11707;50.830;4.364;2024-02-26T14:20:33;6.10;99.90
23079;DHT22;11707;50.830;4.364;2024-02-26T14:23:01;6.20;99.90
23079;DHT22;11707;50.830;4.364;2024-02-26T14:25:29;6.10;99.90
23079;DHT22;11707;50.830;4.364;2024-02-26T14:27:55;6.10;99.90
23079;DHT22;11707;50.830;4.364;2024-02-26T14:30:20;6.10;99.90
23079;DHT22;11707;50.830;4.364;2024-02-26T14:32:47;6.10;99.90
23079;DHT22;11707;50.830;4.364;2024-02-26T14:35:15;6.10;99.90
23079;DHT22;11707;50.830;4.364;2024-02-26T14:37:40;6.10;99.90
23079;DHT22;11707;50.830;4.364;2024-02-26T14:40:06;6.10;99.90
23079;DHT22;11707;50.830;4.364;2024-02-26T14:42:33;6.00;99.90
23079;DHT22;11707;50.830;4.364;2024-02-26T14:45:01;6.00;99.90
23079;DHT22;11707;50.830;4.364;2024-02-26T14:47:27;6.10;99.90
23079;DHT22;11707;50.830;4.364;2024-02-26T14:49:55;6.10;99.90
23079;DHT22;11707;50.830;4.364;2024-02-26T14:52:23;6.20;99.90
23079;DHT22;11707;50.830;4.364;2024-02-26T14:54:49;6.30;99.90
23079;DHT22;11707;50.830;4.364;2024-02-26T14:57:18;6.30;99.90
23079;DHT22;11707;50.830;4.364;2024-02-26T14:59:44;6.30;99.90
23079;DHT22;11707;50.830;4.364;2024-02-26T15:02:12;6.20;99.90
23079;DHT22;11707;50.830;4.364;2024-02-26T15:04:38;6.20;99.90
23079;DHT22;11707;50.830;4.364;2024-02-26T15:07:04;6.30;99.90
23079;DHT22;11707;50.830;4.364;2024-02-26T15:09:30;6.30;99.90
23079;DHT22;11707;50.830;4.364;2024-02-26T15:11:55;6.30;99.90
23079;DHT22;11707;50.830;4.364;2024-02-26T15:14:25;6.20;99.90
23079;DHT22;11707;50.830;4.364;2024-02-26T15:16:54;6.20;99.90
23079;DHT22;11707;50.830;4.364;2024-02-26T15:19:19;6.30;99.90
23079;DHT22;11707;50.830;4.364;2024-02-26T15:21:48;6.30;99.90
23079;DHT22;11707;50.830;4.364;2024-02-26T15:24:14;6.30;99.90
23079;DHT22;11707;50.830;4.364;2024-02-26T15:26:44;6.20;99.90
23079;DHT22;11707;50.830;4.364;2024-02-26T15:29:10;6.20;99.90
23079;DHT22;11707;50.830;4.364;2024-02-26T15:31:39;6.10;99.90
23079;DHT22;11707;50.830;4.364;2024-02-26T15:34:04;6.10;99.90
23079;DHT22;11707;50.830;4.364;2024-02-26T15:36:30;6.20;99.90
23079;DHT22;11707;50.830;4.364;2024-02-26T15:38:56;6.10;99.90
23079;DHT22;11707;50.830;4.364;2024-02-26T15:41:25;6.10;99.90
23079;DHT22;11707;50.830;4.364;2024-02-26T15:43:51;6.10;99.90
23079;DHT22;11707;50.830;4.364;2024-02-26T15:46:18;6.10;99.90
23079;DHT22;11707;50.830;4.364;2024-02-26T15:48:44;6.10;99.90